sensor_id;sensor_type;location;lat;lon;timestamp;temperature;humidity
2389;DHT22;1205;47.984;7.668;2023-03-23T00:01:47;14.80;93.90
2389;DHT22;1205;47.984;7.668;2023-03-23T00:04:15;14.80;94.40
2389;DHT22;1205;47.984;7.668;2023-03-23T00:06:41;14.80;95.00
2389;DHT22;1205;47.984;7.668;2023-03-23T00:09:06;14.80;95.30
2389;DHT22;1205;47.984;7.668;2023-03-23T00:11:32;14.80;95.40
2389;DHT22;1205;47.984;7.668;2023-03-23T00:14:00;14.80;95.40
2389;DHT22;1205;47.984;7.668;2023-03-23T00:16:29;14.80;96.10
2389;DHT22;1205;47.984;7.668;2023-03-23T00:19:06;14.80;96.30
2389;DHT22;1205;47.984;7.668;2023-03-23T00:21:37;14.70;96.30
2389;DHT22;1205;47.984;7.668;2023-03-23T00:24:06;14.70;96.60
2389;DHT22;1205;47.984;7.668;2023-03-23T00:26:39;14.70;96.70
2389;DHT22;1205;47.984;7.668;2023-03-23T00:29:08;14.60;96.90
2389;DHT22;1205;47.984;7.668;2023-03-23T00:31:35;14.60;97.10
2389;DHT22;1205;47.984;7.668;2023-03-23T00:34:03;14.60;97.00
2389;DHT22;1205;47.984;7.668;2023-03-23T00:36:30;14.60;97.20
2389;DHT22;1205;47.984;7.668;2023-03-23T00:38:56;14.60;96.70
2389;DHT22;1205;47.984;7.668;2023-03-23T00:41:27;14.60;96.80
2389;DHT22;1205;47.984;7.668;2023-03-23T00:43:54;14.60;96.60
2389;DHT22;1205;47.984;7.668;2023-03-23T00:46:21;14.60;96.50
2389;DHT22;1205;47.984;7.668;2023-03-23T00:48:46;14.60;96.30
2389;DHT22;1205;47.984;7.668;2023-03-23T00:51:12;14.70;96.20
2389;DHT22;1205;47.984;7.668;2023-03-23T00:53:41;14.70;96.50
2389;DHT22;1205;47.984;7.668;2023-03-23T00:56:08;14.70;96.50
2389;DHT22;1205;47.984;7.668;2023-03-23T00:58:34;14.70;96.60
2389;DHT22;1205;47.984;7.668;2023-03-23T01:01:00;14.70;96.70
2389;DHT22;1205;47.984;7.668;2023-03-23T01:03:26;14.60;96.80
2389;DHT22;1205;47.984;7.668;2023-03-23T01:05:54;14.60;96.80
2389;DHT22;1205;47.984;7.668;2023-03-23T01:08:20;14.60;96.70
2389;DHT22;1205;47.984;7.668;2023-03-23T01:10:47;14.60;96.80
2389;DHT22;1205;47.984;7.668;2023-03-23T01:13:13;14.60;97.00
2389;DHT22;1205;47.984;7.668;2023-03-23T01:15:39;14.60;97.00
2389;DHT22;1205;47.984;7.668;2023-03-23T01:18:05;14.60;96.90
2389;DHT22;1205;47.984;7.668;2023-03-23T01:20:32;14.60;96.70
2389;DHT22;1205;47.984;7.668;2023-03-23T01:23:00;14.60;96.40
2389;DHT22;1205;47.984;7.668;2023-03-23T01:25:31;14.70;96.30
2389;DHT22;1205;47.984;7.668;2023-03-23T01:27:58;14.70;96.20
2389;DHT22;1205;47.984;7.668;2023-03-23T01:30:24;14.70;95.80
2389;DHT22;1205;47.984;7.668;2023-03-23T01:32:51;14.70;95.80
2389;DHT22;1205;47.984;7.668;2023-03-23T01:35:17;14.80;95.90
2389;DHT22;1205;47.984;7.668;2023-03-23T01:37:43;14.70;96.00
2389;DHT22;1205;47.984;7.668;2023-03-23T01:40:09;14.70;95.90
2389;DHT22;1205;47.984;7.668;2023-03-23T01:42:36;14.70;95.50
2389;DHT22;1205;47.984;7.668;2023-03-23T01:45:25;14.70;95.70
2389;DHT22;1205;47.984;7.668;2023-03-23T01:50:31;14.80;95.40
2389;DHT22;1205;47.984;7.668;2023-03-23T01:53:02;14.80;94.70
2389;DHT22;1205;47.984;7.668;2023-03-23T01:55:30;14.80;94.80
2389;DHT22;1205;47.984;7.668;2023-03-23T01:57:56;14.80;94.70
2389;DHT22;1205;47.984;7.668;2023-03-23T02:00:23;14.80;94.60
2389;DHT22;1205;47.984;7.668;2023-03-23T02:02:51;14.80;94.50
2389;DHT22;1205;47.984;7.668;2023-03-23T02:05:31;14.80;93.90
2389;DHT22;1205;47.984;7.668;2023-03-23T02:08:00;14.90;94.00
2389;DHT22;1205;47.984;7.668;2023-03-23T02:10:29;14.90;94.30
2389;DHT22;1205;47.984;7.668;2023-03-23T02:12:56;14.90;94.30
2389;DHT22;1205;47.984;7.668;2023-03-23T02:15:24;14.90;94.20
2389;DHT22;1205;47.984;7.668;2023-03-23T02:18:05;14.90;94.20
2389;DHT22;1205;47.984;7.668;2023-03-23T02:26:50;14.70;95.30
2389;DHT22;1205;47.984;7.668;2023-03-23T02:32:39;14.70;94.80
2389;DHT22;1205;47.984;7.668;2023-03-23T02:35:45;14.70;94.90
2389;DHT22;1205;47.984;7.668;2023-03-23T02:38:21;14.70;94.70
2389;DHT22;1205;47.984;7.668;2023-03-23T02:40:49;14.70;94.30
2389;DHT22;1205;47.984;7.668;2023-03-23T02:43:21;14.80;94.30
2389;DHT22;1205;47.984;7.668;2023-03-23T02:45:48;14.80;94.30
2389;DHT22;1205;47.984;7.668;2023-03-23T02:48:17;14.80;94.10
2389;DHT22;1205;47.984;7.668;2023-03-23T02:50:47;14.80;94.20
2389;DHT22;1205;47.984;7.668;2023-03-23T02:53:19;14.80;94.10
2389;DHT22;1205;47.984;7.668;2023-03-23T02:55:50;14.80;93.90
2389;DHT22;1205;47.984;7.668;2023-03-23T02:58:19;14.90;93.80
2389;DHT22;1205;47.984;7.668;2023-03-23T03:00:45;14.90;93.60
2389;DHT22;1205;47.984;7.668;2023-03-23T03:03:19;15.00;93.20
2389;DHT22;1205;47.984;7.668;2023-03-23T03:06:05;15.00;93.30
2389;DHT22;1205;47.984;7.668;2023-03-23T03:08:44;15.00;93.40
2389;DHT22;1205;47.984;7.668;2023-03-23T03:11:16;15.00;93.70
2389;DHT22;1205;47.984;7.668;2023-03-23T03:16:24;15.00;93.30
2389;DHT22;1205;47.984;7.668;2023-03-23T03:19:11;15.00;93.20
2389;DHT22;1205;47.984;7.668;2023-03-23T03:21:41;15.00;93.30
2389;DHT22;1205;47.984;7.668;2023-03-23T03:24:11;15.00;93.20
2389;DHT22;1205;47.984;7.668;2023-03-23T03:26:45;15.10;93.00
2389;DHT22;1205;47.984;7.668;2023-03-23T03:29:16;15.00;92.80
2389;DHT22;1205;47.984;7.668;2023-03-23T03:31:44;15.10;92.60
2389;DHT22;1205;47.984;7.668;2023-03-23T03:34:14;15.10;92.40
2389;DHT22;1205;47.984;7.668;2023-03-23T03:36:48;15.10;92.50
2389;DHT22;1205;47.984;7.668;2023-03-23T03:39:16;15.10;92.60
2389;DHT22;1205;47.984;7.668;2023-03-23T03:41:48;15.10;92.60
2389;DHT22;1205;47.984;7.668;2023-03-23T03:44:16;15.10;92.60
2389;DHT22;1205;47.984;7.668;2023-03-23T03:46:42;15.10;92.80
2389;DHT22;1205;47.984;7.668;2023-03-23T03:49:09;15.10;93.00
2389;DHT22;1205;47.984;7.668;2023-03-23T03:51:40;15.00;93.10
2389;DHT22;1205;47.984;7.668;2023-03-23T03:54:06;15.10;93.40
2389;DHT22;1205;47.984;7.668;2023-03-23T03:56:33;15.00;93.50
2389;DHT22;1205;47.984;7.668;2023-03-23T03:59:09;15.00;93.70
2389;DHT22;1205;47.984;7.668;2023-03-23T04:01:39;15.00;93.10
2389;DHT22;1205;47.984;7.668;2023-03-23T04:04:05;15.00;92.90
2389;DHT22;1205;47.984;7.668;2023-03-23T04:06:34;15.10;92.80
2389;DHT22;1205;47.984;7.668;2023-03-23T04:09:05;15.10;92.80
2389;DHT22;1205;47.984;7.668;2023-03-23T04:11:37;15.10;92.80
2389;DHT22;1205;47.984;7.668;2023-03-23T04:14:03;15.10;92.80
2389;DHT22;1205;47.984;7.668;2023-03-23T04:16:29;15.20;92.70
2389;DHT22;1205;47.984;7.668;2023-03-23T04:18:55;15.20;92.30
2389;DHT22;1205;47.984;7.668;2023-03-23T04:21:21;15.30;92.20
2389;DHT22;1205;47.984;7.668;2023-03-23T04:23:50;15.30;92.10
2389;DHT22;1205;47.984;7.668;2023-03-23T04:26:16;15.40;92.10
2389;DHT22;1205;47.984;7.668;2023-03-23T04:28:42;15.40;92.20
2389;DHT22;1205;47.984;7.668;2023-03-23T04:31:08;15.40;92.20
2389;DHT22;1205;47.984;7.668;2023-03-23T04:33:37;15.30;92.20
2389;DHT22;1205;47.984;7.668;2023-03-23T04:36:03;15.30;92.30
2389;DHT22;1205;47.984;7.668;2023-03-23T04:38:37;15.40;92.20
2389;DHT22;1205;47.984;7.668;2023-03-23T04:41:07;15.40;92.00
2389;DHT22;1205;47.984;7.668;2023-03-23T04:43:33;15.40;92.10
2389;DHT22;1205;47.984;7.668;2023-03-23T04:46:07;15.40;92.40
2389;DHT22;1205;47.984;7.668;2023-03-23T04:48:42;15.40;92.30
2389;DHT22;1205;47.984;7.668;2023-03-23T04:51:11;15.40;92.10
2389;DHT22;1205;47.984;7.668;2023-03-23T04:53:40;15.50;92.10
2389;DHT22;1205;47.984;7.668;2023-03-23T04:56:07;15.60;92.10
2389;DHT22;1205;47.984;7.668;2023-03-23T04:58:33;15.50;92.30
2389;DHT22;1205;47.984;7.668;2023-03-23T05:01:02;15.50;92.50
2389;DHT22;1205;47.984;7.668;2023-03-23T05:03:27;15.50;92.20
2389;DHT22;1205;47.984;7.668;2023-03-23T05:05:56;15.50;92.00
2389;DHT22;1205;47.984;7.668;2023-03-23T05:08:23;15.60;92.30
2389;DHT22;1205;47.984;7.668;2023-03-23T05:10:57;15.50;92.30
2389;DHT22;1205;47.984;7.668;2023-03-23T05:13:29;15.60;92.50
2389;DHT22;1205;47.984;7.668;2023-03-23T05:15:55;15.60;92.60
2389;DHT22;1205;47.984;7.668;2023-03-23T05:18:24;15.60;92.40
2389;DHT22;1205;47.984;7.668;2023-03-23T05:20:51;15.60;92.30
2389;DHT22;1205;47.984;7.668;2023-03-23T05:23:18;15.60;92.30
2389;DHT22;1205;47.984;7.668;2023-03-23T05:25:55;15.60;92.40
2389;DHT22;1205;47.984;7.668;2023-03-23T05:28:22;15.50;92.60
2389;DHT22;1205;47.984;7.668;2023-03-23T05:30:50;15.50;92.50
2389;DHT22;1205;47.984;7.668;2023-03-23T05:33:16;15.60;92.80
2389;DHT22;1205;47.984;7.668;2023-03-23T05:35:42;15.60;92.80
2389;DHT22;1205;47.984;7.668;2023-03-23T05:38:10;15.50;92.90
2389;DHT22;1205;47.984;7.668;2023-03-23T05:40:37;15.50;93.00
2389;DHT22;1205;47.984;7.668;2023-03-23T05:43:03;15.50;93.10
2389;DHT22;1205;47.984;7.668;2023-03-23T05:45:29;15.50;92.90
2389;DHT22;1205;47.984;7.668;2023-03-23T05:47:55;15.50;93.40
2389;DHT22;1205;47.984;7.668;2023-03-23T05:50:24;15.40;93.30
2389;DHT22;1205;47.984;7.668;2023-03-23T05:52:50;15.40;93.20
2389;DHT22;1205;47.984;7.668;2023-03-23T05:55:17;15.40;93.20
2389;DHT22;1205;47.984;7.668;2023-03-23T05:57:46;15.40;93.20
2389;DHT22;1205;47.984;7.668;2023-03-23T06:00:14;15.40;93.50
2389;DHT22;1205;47.984;7.668;2023-03-23T06:02:45;15.40;93.60
2389;DHT22;1205;47.984;7.668;2023-03-23T06:05:12;15.30;93.60
2389;DHT22;1205;47.984;7.668;2023-03-23T06:07:39;15.30;93.70
2389;DHT22;1205;47.984;7.668;2023-03-23T06:10:06;15.30;93.70
2389;DHT22;1205;47.984;7.668;2023-03-23T06:12:33;15.30;94.00
2389;DHT22;1205;47.984;7.668;2023-03-23T06:15:02;15.40;93.90
2389;DHT22;1205;47.984;7.668;2023-03-23T06:17:29;15.30;94.00
2389;DHT22;1205;47.984;7.668;2023-03-23T06:19:59;15.30;94.00
2389;DHT22;1205;47.984;7.668;2023-03-23T06:22:26;15.30;94.10
2389;DHT22;1205;47.984;7.668;2023-03-23T06:24:54;15.30;94.20
2389;DHT22;1205;47.984;7.668;2023-03-23T06:27:24;15.30;94.20
2389;DHT22;1205;47.984;7.668;2023-03-23T06:29:55;15.20;94.50
2389;DHT22;1205;47.984;7.668;2023-03-23T06:32:23;15.20;94.70
2389;DHT22;1205;47.984;7.668;2023-03-23T06:34:51;15.30;94.70
2389;DHT22;1205;47.984;7.668;2023-03-23T06:37:18;15.30;94.90
2389;DHT22;1205;47.984;7.668;2023-03-23T06:39:46;15.30;95.10
2389;DHT22;1205;47.984;7.668;2023-03-23T06:42:14;15.30;95.10
2389;DHT22;1205;47.984;7.668;2023-03-23T06:44:43;15.20;95.10
2389;DHT22;1205;47.984;7.668;2023-03-23T06:47:12;15.20;95.20
2389;DHT22;1205;47.984;7.668;2023-03-23T06:49:38;15.30;95.30
2389;DHT22;1205;47.984;7.668;2023-03-23T06:52:09;15.30;95.20
2389;DHT22;1205;47.984;7.668;2023-03-23T06:54:35;15.30;95.30
2389;DHT22;1205;47.984;7.668;2023-03-23T06:57:05;15.20;95.30
2389;DHT22;1205;47.984;7.668;2023-03-23T06:59:32;15.20;95.10
2389;DHT22;1205;47.984;7.668;2023-03-23T07:01:58;15.20;95.10
2389;DHT22;1205;47.984;7.668;2023-03-23T07:04:24;15.20;94.80
2389;DHT22;1205;47.984;7.668;2023-03-23T07:06:53;15.20;95.10
2389;DHT22;1205;47.984;7.668;2023-03-23T07:09:18;15.20;94.90
2389;DHT22;1205;47.984;7.668;2023-03-23T07:11:46;15.30;95.00
2389;DHT22;1205;47.984;7.668;2023-03-23T07:14:13;15.30;95.00
2389;DHT22;1205;47.984;7.668;2023-03-23T07:16:42;15.30;95.10
2389;DHT22;1205;47.984;7.668;2023-03-23T07:19:10;15.30;95.20
2389;DHT22;1205;47.984;7.668;2023-03-23T07:21:39;15.30;95.30
2389;DHT22;1205;47.984;7.668;2023-03-23T07:24:06;15.30;95.50
2389;DHT22;1205;47.984;7.668;2023-03-23T07:26:32;15.40;95.80
2389;DHT22;1205;47.984;7.668;2023-03-23T07:28:58;15.30;96.50
2389;DHT22;1205;47.984;7.668;2023-03-23T07:31:24;15.30;97.00
2389;DHT22;1205;47.984;7.668;2023-03-23T07:33:53;15.30;97.30
2389;DHT22;1205;47.984;7.668;2023-03-23T07:36:19;15.30;97.60
2389;DHT22;1205;47.984;7.668;2023-03-23T07:38:45;15.30;97.50
2389;DHT22;1205;47.984;7.668;2023-03-23T07:41:11;15.30;97.80
2389;DHT22;1205;47.984;7.668;2023-03-23T07:43:36;15.30;98.20
2389;DHT22;1205;47.984;7.668;2023-03-23T07:46:02;15.30;98.80
2389;DHT22;1205;47.984;7.668;2023-03-23T07:48:28;15.20;99.50
2389;DHT22;1205;47.984;7.668;2023-03-23T07:50:53;15.10;99.70
2389;DHT22;1205;47.984;7.668;2023-03-23T07:53:19;15.10;99.90
2389;DHT22;1205;47.984;7.668;2023-03-23T07:55:46;15.10;99.80
2389;DHT22;1205;47.984;7.668;2023-03-23T07:58:12;15.10;99.70
2389;DHT22;1205;47.984;7.668;2023-03-23T08:00:43;15.00;99.90
2389;DHT22;1205;47.984;7.668;2023-03-23T08:03:09;15.10;99.90
2389;DHT22;1205;47.984;7.668;2023-03-23T08:05:34;15.10;99.90
2389;DHT22;1205;47.984;7.668;2023-03-23T08:08:00;15.00;99.90
2389;DHT22;1205;47.984;7.668;2023-03-23T08:10:26;15.10;99.90
2389;DHT22;1205;47.984;7.668;2023-03-23T08:12:54;15.00;99.90
2389;DHT22;1205;47.984;7.668;2023-03-23T08:15:21;15.00;99.90
2389;DHT22;1205;47.984;7.668;2023-03-23T08:17:48;15.00;99.90
2389;DHT22;1205;47.984;7.668;2023-03-23T08:20:14;15.10;99.90
2389;DHT22;1205;47.984;7.668;2023-03-23T08:22:43;15.10;99.90
2389;DHT22;1205;47.984;7.668;2023-03-23T08:25:13;15.00;99.90
2389;DHT22;1205;47.984;7.668;2023-03-23T08:27:39;15.00;99.90
2389;DHT22;1205;47.984;7.668;2023-03-23T08:30:11;15.00;99.90
2389;DHT22;1205;47.984;7.668;2023-03-23T08:32:37;15.10;99.90
2389;DHT22;1205;47.984;7.668;2023-03-23T08:35:03;15.00;99.90
2389;DHT22;1205;47.984;7.668;2023-03-23T08:37:29;15.00;99.90
2389;DHT22;1205;47.984;7.668;2023-03-23T08:39:56;15.10;99.90
2389;DHT22;1205;47.984;7.668;2023-03-23T08:42:23;15.00;99.90
2389;DHT22;1205;47.984;7.668;2023-03-23T08:44:50;15.10;99.90
2389;DHT22;1205;47.984;7.668;2023-03-23T08:47:15;15.20;99.90
2389;DHT22;1205;47.984;7.668;2023-03-23T08:49:41;15.20;99.90
2389;DHT22;1205;47.984;7.668;2023-03-23T08:52:08;15.20;99.90
2389;DHT22;1205;47.984;7.668;2023-03-23T08:54:34;15.20;99.90
2389;DHT22;1205;47.984;7.668;2023-03-23T08:57:01;15.20;99.90
2389;DHT22;1205;47.984;7.668;2023-03-23T08:59:26;15.30;99.90
2389;DHT22;1205;47.984;7.668;2023-03-23T09:01:52;15.30;99.90
2389;DHT22;1205;47.984;7.668;2023-03-23T09:04:18;15.40;99.90
2389;DHT22;1205;47.984;7.668;2023-03-23T09:06:44;15.40;99.90
2389;DHT22;1205;47.984;7.668;2023-03-23T09:09:11;15.40;99.90
2389;DHT22;1205;47.984;7.668;2023-03-23T09:11:37;15.40;99.90
2389;DHT22;1205;47.984;7.668;2023-03-23T09:14:04;15.50;99.90
2389;DHT22;1205;47.984;7.668;2023-03-23T09:16:31;15.50;99.90
2389;DHT22;1205;47.984;7.668;2023-03-23T09:18:57;15.50;99.90
2389;DHT22;1205;47.984;7.668;2023-03-23T09:21:24;15.60;99.90
2389;DHT22;1205;47.984;7.668;2023-03-23T09:23:50;15.70;99.90
2389;DHT22;1205;47.984;7.668;2023-03-23T09:26:16;15.70;99.90
2389;DHT22;1205;47.984;7.668;2023-03-23T09:28:42;15.80;99.90
2389;DHT22;1205;47.984;7.668;2023-03-23T09:31:09;15.80;99.90
2389;DHT22;1205;47.984;7.668;2023-03-23T09:33:36;15.90;99.90
2389;DHT22;1205;47.984;7.668;2023-03-23T09:36:02;15.90;99.90
2389;DHT22;1205;47.984;7.668;2023-03-23T09:38:28;16.00;99.90
2389;DHT22;1205;47.984;7.668;2023-03-23T09:41:24;16.10;99.90
2389;DHT22;1205;47.984;7.668;2023-03-23T09:44:21;16.20;99.90
2389;DHT22;1205;47.984;7.668;2023-03-23T09:49:26;16.10;98.70
2389;DHT22;1205;47.984;7.668;2023-03-23T09:52:16;16.20;99.00
2389;DHT22;1205;47.984;7.668;2023-03-23T09:54:50;16.30;99.20
2389;DHT22;1205;47.984;7.668;2023-03-23T09:57:28;16.30;99.10
2389;DHT22;1205;47.984;7.668;2023-03-23T10:00:10;16.40;98.20
2389;DHT22;1205;47.984;7.668;2023-03-23T10:05:31;16.90;99.90
2389;DHT22;1205;47.984;7.668;2023-03-23T10:08:00;17.20;99.00
2389;DHT22;1205;47.984;7.668;2023-03-23T10:10:36;17.40;98.70
2389;DHT22;1205;47.984;7.668;2023-03-23T10:13:14;17.60;98.50
2389;DHT22;1205;47.984;7.668;2023-03-23T10:15:43;17.70;98.10
2389;DHT22;1205;47.984;7.668;2023-03-23T10:18:23;17.90;97.40
2389;DHT22;1205;47.984;7.668;2023-03-23T10:20:58;18.00;97.00
2389;DHT22;1205;47.984;7.668;2023-03-23T10:23:45;18.00;96.60
2389;DHT22;1205;47.984;7.668;2023-03-23T10:31:49;18.40;95.40
2389;DHT22;1205;47.984;7.668;2023-03-23T10:34:26;18.50;95.80
2389;DHT22;1205;47.984;7.668;2023-03-23T10:39:48;18.60;96.30
2389;DHT22;1205;47.984;7.668;2023-03-23T10:42:23;18.70;94.90
2389;DHT22;1205;47.984;7.668;2023-03-23T10:44:50;18.90;94.50
2389;DHT22;1205;47.984;7.668;2023-03-23T10:47:16;19.00;95.60
2389;DHT22;1205;47.984;7.668;2023-03-23T10:49:48;19.10;93.90
2389;DHT22;1205;47.984;7.668;2023-03-23T10:52:30;19.00;93.50
2389;DHT22;1205;47.984;7.668;2023-03-23T10:57:41;19.00;93.80
2389;DHT22;1205;47.984;7.668;2023-03-23T11:02:45;19.10;93.50
2389;DHT22;1205;47.984;7.668;2023-03-23T11:07:41;19.10;94.20
2389;DHT22;1205;47.984;7.668;2023-03-23T11:10:28;19.30;94.30
2389;DHT22;1205;47.984;7.668;2023-03-23T11:12:57;19.30;93.60
2389;DHT22;1205;47.984;7.668;2023-03-23T11:15:29;19.20;93.40
2389;DHT22;1205;47.984;7.668;2023-03-23T11:18:21;19.10;92.00
2389;DHT22;1205;47.984;7.668;2023-03-23T11:20:52;19.10;92.60
2389;DHT22;1205;47.984;7.668;2023-03-23T11:23:23;19.20;92.60
2389;DHT22;1205;47.984;7.668;2023-03-23T11:26:20;19.30;92.80
2389;DHT22;1205;47.984;7.668;2023-03-23T11:31:35;18.60;91.00
2389;DHT22;1205;47.984;7.668;2023-03-23T11:34:20;18.60;91.50
2389;DHT22;1205;47.984;7.668;2023-03-23T11:37:14;18.70;91.80
2389;DHT22;1205;47.984;7.668;2023-03-23T11:39:53;18.90;92.10
2389;DHT22;1205;47.984;7.668;2023-03-23T11:42:22;18.90;91.70
2389;DHT22;1205;47.984;7.668;2023-03-23T11:44:48;18.80;91.20
2389;DHT22;1205;47.984;7.668;2023-03-23T11:50:08;18.70;91.20
2389;DHT22;1205;47.984;7.668;2023-03-23T11:52:44;18.30;90.70
2389;DHT22;1205;47.984;7.668;2023-03-23T11:58:10;18.20;91.50
2389;DHT22;1205;47.984;7.668;2023-03-23T12:01:00;18.20;91.20
2389;DHT22;1205;47.984;7.668;2023-03-23T12:06:13;18.30;91.20
2389;DHT22;1205;47.984;7.668;2023-03-23T12:08:59;18.30;91.30
2389;DHT22;1205;47.984;7.668;2023-03-23T12:11:51;18.30;91.20
2389;DHT22;1205;47.984;7.668;2023-03-23T12:28:21;18.60;90.20
2389;DHT22;1205;47.984;7.668;2023-03-23T12:36:27;18.60;90.80
2389;DHT22;1205;47.984;7.668;2023-03-23T12:44:54;18.30;90.20
2389;DHT22;1205;47.984;7.668;2023-03-23T12:50:24;18.30;91.40
2389;DHT22;1205;47.984;7.668;2023-03-23T12:52:58;18.20;90.90
2389;DHT22;1205;47.984;7.668;2023-03-23T12:55:38;18.30;91.40
2389;DHT22;1205;47.984;7.668;2023-03-23T12:58:09;18.30;91.70
2389;DHT22;1205;47.984;7.668;2023-03-23T13:00:57;18.30;91.60
2389;DHT22;1205;47.984;7.668;2023-03-23T13:03:33;18.40;91.50
2389;DHT22;1205;47.984;7.668;2023-03-23T13:06:06;18.50;91.10
2389;DHT22;1205;47.984;7.668;2023-03-23T13:08:40;18.40;91.40
2389;DHT22;1205;47.984;7.668;2023-03-23T13:11:20;18.40;91.30
2389;DHT22;1205;47.984;7.668;2023-03-23T13:13:52;18.30;90.90
2389;DHT22;1205;47.984;7.668;2023-03-23T13:16:51;18.20;91.40
2389;DHT22;1205;47.984;7.668;2023-03-23T13:19:45;18.10;91.30
2389;DHT22;1205;47.984;7.668;2023-03-23T13:24:52;18.00;90.90
2389;DHT22;1205;47.984;7.668;2023-03-23T13:27:23;17.90;90.60
2389;DHT22;1205;47.984;7.668;2023-03-23T13:29:50;17.80;90.10
2389;DHT22;1205;47.984;7.668;2023-03-23T13:32:18;17.90;90.40
2389;DHT22;1205;47.984;7.668;2023-03-23T13:34:46;17.90;90.40
2389;DHT22;1205;47.984;7.668;2023-03-23T13:42:27;18.00;90.70
2389;DHT22;1205;47.984;7.668;2023-03-23T13:45:22;18.00;90.50
2389;DHT22;1205;47.984;7.668;2023-03-23T13:47:48;18.20;90.90
2389;DHT22;1205;47.984;7.668;2023-03-23T14:03:03;18.50;93.00
2389;DHT22;1205;47.984;7.668;2023-03-23T14:05:36;18.50;90.60
2389;DHT22;1205;47.984;7.668;2023-03-23T14:10:39;18.40;90.50
2389;DHT22;1205;47.984;7.668;2023-03-23T14:13:10;18.30;90.00
2389;DHT22;1205;47.984;7.668;2023-03-23T14:15:58;18.20;90.10
2389;DHT22;1205;47.984;7.668;2023-03-23T14:18:29;18.20;90.20
2389;DHT22;1205;47.984;7.668;2023-03-23T14:20:55;18.10;90.20
2389;DHT22;1205;47.984;7.668;2023-03-23T14:23:22;18.00;90.10
2389;DHT22;1205;47.984;7.668;2023-03-23T14:25:56;17.90;90.10
2389;DHT22;1205;47.984;7.668;2023-03-23T14:28:23;18.00;90.60
2389;DHT22;1205;47.984;7.668;2023-03-23T14:30:52;18.10;90.80
2389;DHT22;1205;47.984;7.668;2023-03-23T14:33:19;18.00;90.60
2389;DHT22;1205;47.984;7.668;2023-03-23T14:35:46;17.90;89.80
2389;DHT22;1205;47.984;7.668;2023-03-23T14:38:21;18.00;90.40
2389;DHT22;1205;47.984;7.668;2023-03-23T14:40:49;18.00;90.50
2389;DHT22;1205;47.984;7.668;2023-03-23T14:43:17;18.00;90.70
2389;DHT22;1205;47.984;7.668;2023-03-23T14:45:52;18.00;90.50
2389;DHT22;1205;47.984;7.668;2023-03-23T14:48:20;18.00;90.60
2389;DHT22;1205;47.984;7.668;2023-03-23T14:50:51;18.00;90.60
2389;DHT22;1205;47.984;7.668;2023-03-23T14:55:52;18.00;90.60
2389;DHT22;1205;47.984;7.668;2023-03-23T14:58:21;18.10;90.50
2389;DHT22;1205;47.984;7.668;2023-03-23T15:03:22;18.00;90.90
2389;DHT22;1205;47.984;7.668;2023-03-23T15:05:52;18.00;90.80
2389;DHT22;1205;47.984;7.668;2023-03-23T15:08:33;18.00;91.00
2389;DHT22;1205;47.984;7.668;2023-03-23T15:11:21;18.00;91.10
2389;DHT22;1205;47.984;7.668;2023-03-23T15:13:52;18.00;91.40
2389;DHT22;1205;47.984;7.668;2023-03-23T15:16:28;18.00;91.60
2389;DHT22;1205;47.984;7.668;2023-03-23T15:21:45;18.00;92.30
2389;DHT22;1205;47.984;7.668;2023-03-23T15:24:38;18.00;92.00
2389;DHT22;1205;47.984;7.668;2023-03-23T15:29:47;17.90;92.30
2389;DHT22;1205;47.984;7.668;2023-03-23T15:32:13;17.90;92.90
2389;DHT22;1205;47.984;7.668;2023-03-23T15:34:38;17.90;92.90
2389;DHT22;1205;47.984;7.668;2023-03-23T15:37:27;17.90;92.70
2389;DHT22;1205;47.984;7.668;2023-03-23T15:39:54;17.90;92.90
2389;DHT22;1205;47.984;7.668;2023-03-23T15:42:34;17.80;92.70
2389;DHT22;1205;47.984;7.668;2023-03-23T15:47:47;17.80;92.80
2389;DHT22;1205;47.984;7.668;2023-03-23T15:52:53;17.70;92.90
2389;DHT22;1205;47.984;7.668;2023-03-23T15:55:28;17.70;93.60
2389;DHT22;1205;47.984;7.668;2023-03-23T15:57:56;17.60;93.00
2389;DHT22;1205;47.984;7.668;2023-03-23T16:00:25;17.60;93.00
2389;DHT22;1205;47.984;7.668;2023-03-23T16:02:55;17.50;93.20
2389;DHT22;1205;47.984;7.668;2023-03-23T16:05:21;17.50;93.50
2389;DHT22;1205;47.984;7.668;2023-03-23T16:07:47;17.50;93.40
2389;DHT22;1205;47.984;7.668;2023-03-23T16:10:22;17.60;93.70
2389;DHT22;1205;47.984;7.668;2023-03-23T16:12:48;17.50;93.80
2389;DHT22;1205;47.984;7.668;2023-03-23T16:15:15;17.50;93.90
2389;DHT22;1205;47.984;7.668;2023-03-23T16:17:41;17.40;93.80
2389;DHT22;1205;47.984;7.668;2023-03-23T16:20:15;17.50;93.90
2389;DHT22;1205;47.984;7.668;2023-03-23T16:22:41;17.40;93.90
2389;DHT22;1205;47.984;7.668;2023-03-23T16:25:08;17.40;93.80
2389;DHT22;1205;47.984;7.668;2023-03-23T16:27:34;17.40;94.00
2389;DHT22;1205;47.984;7.668;2023-03-23T16:30:00;17.40;93.90
2389;DHT22;1205;47.984;7.668;2023-03-23T16:32:28;17.30;94.00
2389;DHT22;1205;47.984;7.668;2023-03-23T16:34:54;17.20;94.10
2389;DHT22;1205;47.984;7.668;2023-03-23T16:37:19;17.20;94.10
2389;DHT22;1205;47.984;7.668;2023-03-23T16:39:46;17.30;94.20
2389;DHT22;1205;47.984;7.668;2023-03-23T16:42:11;17.20;94.00
2389;DHT22;1205;47.984;7.668;2023-03-23T16:44:37;17.20;94.00
2389;DHT22;1205;47.984;7.668;2023-03-23T16:47:02;17.20;93.90
2389;DHT22;1205;47.984;7.668;2023-03-23T16:49:28;17.20;93.90
2389;DHT22;1205;47.984;7.668;2023-03-23T16:51:53;17.20;94.20
2389;DHT22;1205;47.984;7.668;2023-03-23T16:54:19;17.20;94.10
2389;DHT22;1205;47.984;7.668;2023-03-23T16:56:45;17.10;94.20
2389;DHT22;1205;47.984;7.668;2023-03-23T16:59:12;17.10;94.60
2389;DHT22;1205;47.984;7.668;2023-03-23T17:01:37;17.10;94.40
2389;DHT22;1205;47.984;7.668;2023-03-23T17:04:03;17.10;94.50
2389;DHT22;1205;47.984;7.668;2023-03-23T17:06:29;17.10;94.90
2389;DHT22;1205;47.984;7.668;2023-03-23T17:08:54;17.00;94.90
2389;DHT22;1205;47.984;7.668;2023-03-23T17:11:20;17.00;94.80
2389;DHT22;1205;47.984;7.668;2023-03-23T17:13:46;17.00;94.90
2389;DHT22;1205;47.984;7.668;2023-03-23T17:16:12;16.90;94.90
2389;DHT22;1205;47.984;7.668;2023-03-23T17:18:37;16.90;94.70
2389;DHT22;1205;47.984;7.668;2023-03-23T17:21:03;16.90;94.70
2389;DHT22;1205;47.984;7.668;2023-03-23T17:23:29;16.90;94.70
2389;DHT22;1205;47.984;7.668;2023-03-23T17:25:54;16.80;94.80
2389;DHT22;1205;47.984;7.668;2023-03-23T17:28:20;16.80;94.80
2389;DHT22;1205;47.984;7.668;2023-03-23T17:30:46;16.70;95.00
2389;DHT22;1205;47.984;7.668;2023-03-23T17:33:12;16.60;95.30
2389;DHT22;1205;47.984;7.668;2023-03-23T17:35:38;16.60;95.10
2389;DHT22;1205;47.984;7.668;2023-03-23T17:38:03;16.60;94.70
2389;DHT22;1205;47.984;7.668;2023-03-23T17:40:29;16.60;94.80
2389;DHT22;1205;47.984;7.668;2023-03-23T17:42:55;16.60;94.60
2389;DHT22;1205;47.984;7.668;2023-03-23T17:45:20;16.60;94.60
2389;DHT22;1205;47.984;7.668;2023-03-23T17:47:46;16.50;94.70
2389;DHT22;1205;47.984;7.668;2023-03-23T17:50:12;16.50;94.80
2389;DHT22;1205;47.984;7.668;2023-03-23T17:52:37;16.50;94.70
2389;DHT22;1205;47.984;7.668;2023-03-23T17:55:04;16.50;94.80
2389;DHT22;1205;47.984;7.668;2023-03-23T17:57:29;16.50;94.80
2389;DHT22;1205;47.984;7.668;2023-03-23T17:59:56;16.50;94.80
2389;DHT22;1205;47.984;7.668;2023-03-23T18:02:21;16.50;94.70
2389;DHT22;1205;47.984;7.668;2023-03-23T18:04:47;16.50;95.00
2389;DHT22;1205;47.984;7.668;2023-03-23T18:07:13;16.50;94.90
2389;DHT22;1205;47.984;7.668;2023-03-23T18:09:39;16.50;94.90
2389;DHT22;1205;47.984;7.668;2023-03-23T18:12:05;16.40;94.90
2389;DHT22;1205;47.984;7.668;2023-03-23T18:14:30;16.40;94.80